Atlanta, GA (30379)

3:55 PM EDT on July 29, 2016 (GMT -0400)
The Coca-Cola Company | | Change Station

Elev 984 ft 33.77 °N, 84.40 °W | Updated 16 seconds ago

Mostly Cloudy
Mostly Cloudy
87.6 °F
Feels Like 102 °F
N
5.6
Wind Variable Wind from SSE
Gusts 12.0 mph

Today
High -- | Low -- °F
--% Chance of Precip.
Yesterday
High -- | Low -- °F
Precip. -- in
Pressure 29.97 in
Visibility 10.0 miles
Clouds Scattered Clouds 6000 ft
Mostly Cloudy 8000 ft
Heat Index 102 °F
Dew Point 79 °F
Humidity 76%
Rainfall 0.01 in
Snow Depth Not available.
6:47 AM 8:39 PM
Waning Crescent, 19% visible
METAR KFTY 291853Z 29007KT 10SM SCT060 BKN080 30/21 A3000 RMK AO2 SLP149 T03000206
Pressure 29.97 in
Visibility 10.0 miles
Clouds Scattered Clouds 6000 ft
Mostly Cloudy 8000 ft
Heat Index 102 °F
Dew Point 79 °F
Humidity 76%
Rainfall 0.01 in
Snow Depth Not available.
6:47 AM 8:39 PM
Waning Crescent, 19% visible
METAR KFTY 291853Z 29007KT 10SM SCT060 BKN080 30/21 A3000 RMK AO2 SLP149 T03000206

10-Day Weather Forecast

Almanac

Astronomy

Jul. 29, 2016 Rise Set
Actual Time
Civil Twilight
Nautical Twilight
Astronomical Twilight
Moon
Length of Visible Light
Length of Day
Tomorrow will be .
, % of the Moon is Illuminated

Today's Extremes

State Highs State Lows

Community

WunderPhotos

Upload Photos

1,928,401 photos uploaded!

WunderBlog® & News

Nearby

Air Quality

  Air Quality AQ Index Pollutant
Not available.

Snow Depth

Station Depth Elevation

Earthquake Activity

City Distance Mag. Time & Date
Minimum magnitude displayed is 2.5.

Coastal Water Temperatures

Place Temperature

Stations

Nearby Weather Stations

Station Location Temp. Windchill Dew Point Humidity Wind Precip. Elev Updated Type
                   

Watches & Warnings

There are currently no watches in effect.